Flight Track Log - Related Links

Times and Time Zones

All times are in EDT time to prevent confusion due to time zone crossing. See the N5290H flight status page for this flight to view local times or setup timezone preferences in your user account.

Time Position Orientation Groundspeed Altitude Reporting Facility
EDT Latitude Longitude Course Direction KTS MPH feet Rate Location/Type
Thu 02:45:20 PM 39.5667 -75.0833 360° North 115 132 7,500  Level Philadelphia TRACON
Thu 02:45:50 PM 39.5833 -75.0833 360° North 113 130 7,500  Level Philadelphia TRACON
Thu 02:46:56 PM 39.6167 -75.0667 21° North 115 132 7,500  Level Philadelphia TRACON
Thu 02:47:56 PM 39.6500 -75.0667 360° North 113 130 7,500  Level Philadelphia TRACON
Thu 02:49:08 PM 39.6833 -75.0500 21° North 111 128 7,500  Level Philadelphia TRACON
Thu 02:50:02 PM 39.7167 -75.0500 360° North 114 131 7,500  Level Philadelphia TRACON
Thu 02:51:03 PM 39.7500 -75.0333 21° North 116 133 7,500  Level Philadelphia TRACON
Thu 02:52:08 PM 39.7833 -75.0167 21° North 117 135 7,500  Level Philadelphia TRACON
Thu 02:53:09 PM 39.8167 -75.0167 360° North 115 132 7,500  Level Philadelphia TRACON
Thu 02:54:15 PM 39.8500 -75.0000 21° North 115 132 7,500  Level Philadelphia TRACON
Thu 02:56:14 PM 39.9036 -74.9803 16° North 125 144 7,500  Level Washington Center
Thu 02:57:14 PM 39.9347 -74.9692 15° North 120 138 7,500  Level Washington Center
Thu 02:58:14 PM 39.9639 -74.9581 16° North 115 132 7,500  Level Washington Center
Thu 02:59:14 PM 39.9953 -74.9497 11° North 110 127 7,500  Level Washington Center
Thu 03:00:14 PM 40.0264 -74.9386 15° North 110 127 7,500  Level Washington Center
Thu 03:02:14 PM 40.0886 -74.9161 15° North 105 121 7,500  Level Washington Center
Thu 03:03:14 PM 40.1200 -74.9050 15° North 105 121 7,500  Level Washington Center
Thu 03:04:08 PM 40.1500 -74.9000 North 111 128 7,500  Level New York TRACON
Thu 03:05:08 PM 40.1833 -74.8833 21° North 112 129 7,500  Level New York TRACON
Thu 03:06:02 PM 40.2000 -74.8833 360° North 116 133 7,500  Level New York TRACON
Thu 03:07:02 PM 40.2333 -74.8667 21° North 115 132 7,500 -50 Level New York TRACON
Thu 03:08:02 PM 40.2667 -74.8500 21° North 113 130 7,400  Descending New York TRACON
Thu 03:09:02 PM 40.3000 -74.8500 360° North 119 137 7,500 33 Climbing New York TRACON
Thu 03:11:02 PM 40.3667 -74.8167 21° North 114 131 7,500  Level New York TRACON
Thu 03:12:02 PM 40.4000 -74.8167 360° North 119 137 7,500  Level New York TRACON
Thu 03:13:02 PM 40.4167 -74.8000 37° Northeast 115 132 7,500  Level New York TRACON
Thu 03:14:02 PM 40.4500 -74.7833 21° North 118 136 7,500  Level New York TRACON
Thu 03:15:02 PM 40.4833 -74.7833 360° North 117 135 7,500  Level New York TRACON
Thu 03:17:02 PM 40.5500 -74.7667 11° North 115 132 7,500  Level New York TRACON
Thu 03:18:02 PM 40.5833 -74.7500 21° North 116 133 7,500  Level New York TRACON
Thu 03:19:02 PM 40.6000 -74.7333 37° Northeast 115 132 7,500  Level New York TRACON
Thu 03:20:02 PM 40.6333 -74.7333 360° North 113 130 7,500  Level New York TRACON
Thu 03:21:02 PM 40.6667 -74.7167 21° North 116 133 7,500  Level New York TRACON
Thu 03:22:02 PM 40.7000 -74.7000 21° North 112 129 7,500  Level New York TRACON
Thu 03:23:02 PM 40.7333 -74.7000 360° North 111 128 7,500  Level New York TRACON
Thu 03:24:02 PM 40.7667 -74.6833 21° North 114 131 7,500  Level New York TRACON
Thu 03:25:02 PM 40.7833 -74.6667 37° Northeast 111 128 7,500  Level New York TRACON
Thu 03:26:02 PM 40.8167 -74.6667 360° North 117 135 7,500  Level New York TRACON
Thu 03:27:02 PM 40.8500 -74.6500 21° North 114 131 7,500  Level New York TRACON
Thu 03:28:02 PM 40.8833 -74.6500 360° North 111 128 7,500  Level New York TRACON
Thu 03:29:02 PM 40.9167 -74.6333 21° North 111 128 7,500  Level New York TRACON
Thu 03:30:02 PM 40.9333 -74.6167 37° Northeast 110 127 7,500  Level New York TRACON
Thu 03:31:02 PM 40.9667 -74.6167 360° North 104 120 7,500  Level New York TRACON
Thu 03:32:02 PM 41.0000 -74.6000 21° North 113 130 7,500  Level New York TRACON
Thu 03:33:02 PM 41.0333 -74.5833 21° North 112 129 7,500  Level New York TRACON
Thu 03:34:02 PM 41.0500 -74.5833 360° North 115 132 7,500  Level New York TRACON
Thu 03:35:02 PM 41.0833 -74.5667 21° North 114 131 7,500  Level New York TRACON
Thu 03:36:02 PM 41.1167 -74.5667 360° North 106 122 7,500  Level New York TRACON
Thu 03:37:02 PM 41.1500 -74.5500 21° North 112 129 7,500  Level New York TRACON
Thu 03:38:40 PM 41.1972 -74.5311 17° North 120 138 7,500  Level Boston Center
Thu 03:39:40 PM 41.2267 -74.5211 14° North 120 138 7,500  Level Boston Center
Thu 03:40:40 PM 41.2622 -74.5083 15° North 120 138 7,500  Level Boston Center
Thu 03:41:40 PM 41.2875 -74.5011 12° North 115 132 7,500  Level Boston Center
Thu 03:42:40 PM 41.3231 -74.4856 18° North 110 127 7,500  Level Boston Center
Thu 03:43:40 PM 41.3503 -74.4781 12° North 105 121 7,500  Level Boston Center
Thu 03:44:40 PM 41.3839 -74.4681 13° North 105 121 7,500  Level Boston Center
Thu 03:46:14 PM 41.4261 -74.4553 13° North 105 121 7,500  Level Washington Center
Thu 03:46:40 PM 41.4425 -74.4478 19° North 105 121 7,500  Level Boston Center
Thu 03:47:40 PM 41.4700 -74.4347 20° North 105 121 7,500  Level Boston Center
Thu 03:48:40 PM 41.5014 -74.4247 13° North 105 121 7,500  Level Boston Center
Thu 03:49:40 PM 41.5267 -74.4144 17° North 105 121 7,500  Level Boston Center
Thu 03:50:40 PM 41.5600 -74.4044 13° North 105 121 7,500  Level Boston Center
Thu 03:51:40 PM 41.5853 -74.3939 17° North 105 121 7,500  Level Boston Center
Thu 03:52:40 PM 41.6189 -74.3839 13° North 105 121 7,500  Level Boston Center
Thu 03:53:40 PM 41.6461 -74.3736 16° North 105 121 7,500  Level Boston Center
Thu 03:54:40 PM 41.6797 -74.3608 16° North 105 121 7,500  Level Boston Center
Thu 03:55:40 PM 41.7050 -74.3478 21° North 105 121 7,500  Level Boston Center
Thu 03:56:40 PM 41.7364 -74.3375 14° North 105 121 7,500  Level Boston Center
Thu 03:57:40 PM 41.7614 -74.3269 17° North 105 121 7,500  Level Boston Center
Thu 03:58:40 PM 41.7931 -74.3169 13° North 105 121 7,500  Level Boston Center
Thu 03:59:40 PM 41.8181 -74.3092 13° North 105 121 7,500  Level Boston Center
Thu 04:00:40 PM 41.8517 -74.2992 12° North 105 121 7,500  Level Boston Center
Thu 04:01:40 PM 41.8850 -74.2889 13° North 118 136 7,500  Level Boston Center
Thu 04:02:40 PM 41.9186 -74.2758 16° North 118 136 7,500  Level Boston Center
Thu 04:03:40 PM 41.9481 -74.2628 18° North 118 136 7,500  Level Boston Center
Thu 04:04:40 PM 41.9794 -74.2497 17° North 113 130 7,500  Level Boston Center
Thu 04:06:00 PM 42.0660 -74.2544 358° North  Level FlightAware Approximate
Thu 04:06:40 PM 42.0425 -74.2264 358° North 113 130 7,500  Level Boston Center
Thu 04:07:01 PM 42.0569 -74.2242 North 120 138 7,500  Level Boston Center
Thu 04:07:40 PM 42.0739 -74.2189 13° North 113 130 7,500  Level Boston Center
Thu 04:08:20 PM 42.0947 -74.2167 North 105 121 7,500  Level Boston Center
Thu 04:08:40 PM 42.1011 -74.2086 43° Northeast 107 123 7,500  Level Boston Center
Thu 04:09:14 PM 42.1242 -74.2036 North 107 123 7,500  Level Boston Center
Thu 04:09:40 PM 42.1347 -74.1983 20° North 107 123 7,500  Level Boston Center
Thu 04:10:21 PM 42.1575 -74.1933 North 123 142 7,500 -100 Level Boston Center
Thu 04:10:40 PM 42.1661 -74.1853 35° Northeast 107 123 7,400 -109 Descending Boston Center
Thu 04:11:16 PM 42.1892 -74.1803 North 123 142 7,400 100 Level Boston Center
Thu 04:11:40 PM 42.1975 -74.1747 26° Northeast 107 123 7,500 100 Climbing Boston Center
Thu 04:12:16 PM 42.2183 -74.1669 15° North 117 135 7,500  Level Boston Center
Thu 04:12:40 PM 42.2311 -74.1589 25° Northeast 107 123 7,500  Level Boston Center
Thu 04:13:17 PM 42.2500 -74.1511 17° North 123 142 7,500 -100 Level Boston Center
Thu 04:13:40 PM 42.2625 -74.1458 17° North 107 123 7,400 -295 Descending Boston Center
Thu 04:14:18 PM 42.2836 -74.1378 16° North 127 146 7,200 -300 Descending Boston Center
Thu 04:14:40 PM 42.2981 -74.1328 14° North 118 136 7,100 -333 Descending Boston Center
Thu 04:15:12 PM 42.3150 -74.1275 13° North 127 146 6,900 -300 Descending Boston Center
Thu 04:15:40 PM 42.3275 -74.1194 25° Northeast 118 136 6,800 -197 Descending Boston Center
Thu 04:16:13 PM 42.3483 -74.1172 North 121 139 6,700 -300 Descending Boston Center
Thu 04:16:40 PM 42.3653 -74.1092 19° North 123 142 6,500 -393 Descending Boston Center
Thu 04:17:14 PM 42.3819 -74.1069 North 123 142 6,300 -300 Descending Boston Center
Thu 04:17:40 PM 42.3944 -74.0989 25° Northeast 123 142 6,200 -300 Descending Boston Center
Thu 04:18:14 PM 42.4175 -74.0936 10° North 121 139 6,000 -300 Descending Boston Center
Thu 04:18:40 PM 42.4300 -74.0883 17° North 123 142 5,900 -393 Descending Boston Center
Thu 04:19:15 PM 42.4511 -74.0833 10° North 125 144 5,600 -400 Descending Boston Center
Thu 04:19:40 PM 42.4617 -74.0753 29° Northeast 123 142 5,500 -492 Descending Boston Center
Thu 04:20:16 PM 42.4844 -74.0703 North 129 148 5,100 -600 Descending Boston Center
Thu 04:20:40 PM 42.4992 -74.0622 22° Northeast 123 142 4,900 -444 Descending Boston Center
Thu 04:21:10 PM 42.5161 -74.0569 13° North 127 146 4,700 -400 Descending Boston Center
Thu 04:21:40 PM 42.5308 -74.0489 22° Northeast 123 142 4,500 -436 Descending Boston Center
Thu 04:22:05 PM 42.5453 -74.0436 15° North 128 147 4,300 -282 Descending Boston Center
Thu 04:23:05 PM 42.5789 -74.0331 13° North 119 137 4,100 -248 Descending Boston Center
Thu 04:24:06 PM 42.6103 -74.0197 17° North 113 130 3,800 -295 Descending Boston Center
Thu 04:25:07 PM 42.6439 -74.0067 16° North 126 145 3,500 -313 Descending Boston Center
Thu 04:26:01 PM 42.6753 -73.9961 14° North 124 143 3,200 -417 Descending Boston Center
Thu 04:27:02 PM 42.7067 -73.9856 14° North 122 140 2,700 -466 Descending Boston Center
Thu 04:27:57 PM 42.7361 -73.9778 11° North 121 139 2,300 -446 Descending Boston Center
Thu 04:29:03 PM 42.7736 -73.9619 17° North 127 146 1,800 -496 Descending Boston Center
Thu 04:30:10 PM 42.8072 -73.9486 16° North 111 128 1,200 -234 Descending Boston Center
Thu 04:31:11 PM 42.8200 -73.9233 55° Northeast 93 107 1,300 -50 Climbing Boston Center
Thu 04:32:11 PM 42.8369 -73.9011 44° Northeast 68 78 1,100 -248 Descending Boston Center
Thu 04:33:12 PM 42.8494 -73.9156 320° Northwest 77 89 800 -295 Descending Boston Center
Thu 04:35:00 PM 42.8500 -73.9167 44° Northeast  Level FlightAware Approximate
Thu 04:42:00 PM 42.8526 -73.9290 44° Northeast  Level Estimated
Thu 04:43:00 PM 42.8526 -73.9290 44° Northeast  Level Estimated
Thu 04:44:00 PM 42.8526 -73.9290 44° Northeast  Level Estimated
Thu 04:45:00 PM 42.8526 -73.9290 44° Northeast  Level Estimated

Login

Don't have an account? Register now (free) for customized features, flight alerts, and more!